KSCH/SCH METAR and TAF weather

Enter ICAO airport designator
Station Type Date Time Source
KSCH METAR 2018/12/13 02:47 UTC NOAA

KSCH 130247Z 03005KT 10SM CLR M07/M13 A3028 RMK LAST


Station Type Date Time Source
KSCH Decoded METAR 2018/12/13 02:47 UTC NOAA

Schenectady Airport, NY, United States (KSCH) 42-51N 073-56W
Dec 12, 2018 - 09:47 PM EST / 2018.12.13 0247 UTC
Wind: from the NNE (030 degrees) at 6 MPH (5 KT):0
Visibility: 10 mile(s):0
Sky conditions: clear
Temperature: 19 F (-7 C)
Windchill: 10 F (-12 C):1
Dew Point: 8 F (-13 C)
Relative Humidity: 62%
Pressure (altimeter): 30.28 in. Hg (1025 hPa)
ob: KSCH 130247Z 03005KT 10SM CLR M07/M13 A3028 RMK LAST
cycle: 3

Station Type Date Time Source
KSCH TAF UTC NOAA

Error!


Example: see airport list